Time;durP1;ratioP1;P1;durP2;ratioP2;P2;SDS_P1;SDS_P2;PMS_P1;PMS_P2;Temp;Humidity;BMP_temperature;BMP_pressure;BME280_temperature;BME280_humidity;BME280_pressure;Samples;Min_cycle;Max_cycle;Signal;HPM_P1;HPM_P2
2022/03/06 00:01:36;;;;;;;7.10;5.33;;;;;;;;;;4984618;28;20041;-60
2022/03/06 00:04:01;;;;;;;6.57;5.45;;;;;;;;;;4986985;28;20030;-60
2022/03/06 00:06:26;;;;;;;6.33;5.17;;;;;;;;;;4985682;28;20026;-60
2022/03/06 00:08:52;;;;;;;6.50;5.60;;;;;;;;;;4985204;28;20629;-61
2022/03/06 00:11:17;;;;;;;6.70;5.30;;;;;;;;;;4985462;28;20826;-62
2022/03/06 00:13:42;;;;;;;7.30;5.33;;;;;;;;;;4985705;28;20348;-62
2022/03/06 00:16:07;;;;;;;6.80;5.17;;;;;;;;;;4984888;28;20385;-61
2022/03/06 00:18:35;;;;;;;7.10;5.82;;;;;;;;;;4968064;28;20018;-62
2022/03/06 00:21:00;;;;;;;7.10;5.30;;;;;;;;;;4984859;28;20096;-61
2022/03/06 00:23:26;;;;;;;6.63;5.43;;;;;;;;;;4984913;28;20488;-62
2022/03/06 00:25:51;;;;;;;6.33;4.87;;;;;;;;;;4985259;28;20273;-61
2022/03/06 00:28:16;;;;;;;8.07;5.40;;;;;;;;;;4985086;28;20282;-61
2022/03/06 00:30:42;;;;;;;6.67;5.40;;;;;;;;;;4984852;28;20280;-60
2022/03/06 00:33:07;;;;;;;7.55;5.25;;;;;;;;;;4985275;28;20331;-61
2022/03/06 00:35:32;;;;;;;6.67;5.20;;;;;;;;;;4984898;28;20339;-60
2022/03/06 00:37:58;;;;;;;6.10;4.90;;;;;;;;;;4983750;28;21547;-61
2022/03/06 00:40:23;;;;;;;6.53;5.40;;;;;;;;;;4984246;28;20281;-61
2022/03/06 00:42:48;;;;;;;6.20;5.10;;;;;;;;;;4984895;28;20500;-61
2022/03/06 00:45:13;;;;;;;6.00;4.87;;;;;;;;;;4984584;28;20026;-61
2022/03/06 00:47:38;;;;;;;6.17;4.80;;;;;;;;;;4984590;28;20665;-61
2022/03/06 00:50:04;;;;;;;5.23;4.73;;;;;;;;;;4984781;28;20417;-62
2022/03/06 00:52:29;;;;;;;6.25;4.90;;;;;;;;;;4984524;28;20424;-61
2022/03/06 00:54:54;;;;;;;5.88;5.25;;;;;;;;;;4983929;28;20105;-61
2022/03/06 00:57:20;;;;;;;6.60;5.30;;;;;;;;;;4984261;28;20061;-61
2022/03/06 00:59:45;;;;;;;6.27;5.10;;;;;;;;;;4984551;28;20280;-61
2022/03/06 01:02:10;;;;;;;6.13;4.70;;;;;;;;;;4984418;28;20022;-61
2022/03/06 01:04:36;;;;;;;5.80;4.78;;;;;;;;;;4984691;28;20273;-61
2022/03/06 01:07:02;;;;;;;6.32;5.10;;;;;;;;;;4984783;28;20168;-61
2022/03/06 01:09:27;;;;;;;5.95;4.97;;;;;;;;;;4984131;28;20667;-60
2022/03/06 01:11:52;;;;;;;5.83;4.67;;;;;;;;;;4983110;28;20604;-61
2022/03/06 01:14:18;;;;;;;6.07;4.88;;;;;;;;;;4984074;28;20851;-61
2022/03/06 01:16:43;;;;;;;6.35;4.65;;;;;;;;;;4983475;28;20058;-61
2022/03/06 01:19:08;;;;;;;5.88;4.70;;;;;;;;;;4984175;28;20037;-61
2022/03/06 01:21:34;;;;;;;5.90;4.87;;;;;;;;;;4984440;28;20061;-61
2022/03/06 01:23:59;;;;;;;5.80;4.60;;;;;;;;;;4983396;28;20308;-61
2022/03/06 01:26:24;;;;;;;6.40;4.88;;;;;;;;;;4983058;28;20289;-61
2022/03/06 01:28:49;;;;;;;6.47;4.77;;;;;;;;;;4983872;28;20052;-61
2022/03/06 01:31:15;;;;;;;5.60;4.37;;;;;;;;;;4983584;28;20324;-61
2022/03/06 01:33:40;;;;;;;5.27;4.30;;;;;;;;;;4983608;28;20053;-61
2022/03/06 01:36:05;;;;;;;5.95;5.15;;;;;;;;;;4983621;28;20304;-61
2022/03/06 01:38:30;;;;;;;5.87;4.70;;;;;;;;;;4983049;28;20030;-59
2022/03/06 01:40:56;;;;;;;5.87;4.93;;;;;;;;;;4983035;28;20036;-61
2022/03/06 01:43:21;;;;;;;4.80;3.87;;;;;;;;;;4983285;28;20280;-61
2022/03/06 01:45:46;;;;;;;5.97;4.40;;;;;;;;;;4983004;28;20513;-61
2022/03/06 01:48:11;;;;;;;6.13;4.57;;;;;;;;;;4983009;28;20269;-61
2022/03/06 01:50:37;;;;;;;5.30;4.30;;;;;;;;;;4983233;28;20278;-61
2022/03/06 01:53:03;;;;;;;5.38;4.15;;;;;;;;;;4981428;28;20324;-61
2022/03/06 01:55:28;;;;;;;5.18;4.13;;;;;;;;;;4982661;28;20497;-60
2022/03/06 01:57:54;;;;;;;4.80;4.05;;;;;;;;;;4983148;28;20026;-59
2022/03/06 02:00:24;;;;;;;4.85;4.07;;;;;;;;;;4982840;28;20025;-61
2022/03/06 02:02:49;;;;;;;5.18;4.30;;;;;;;;;;4982415;28;20518;-60
2022/03/06 02:05:14;;;;;;;4.97;4.17;;;;;;;;;;4982776;28;20034;-61
2022/03/06 02:07:39;;;;;;;5.00;4.13;;;;;;;;;;4981617;28;20133;-61
2022/03/06 02:10:05;;;;;;;5.47;4.40;;;;;;;;;;4982349;28;20344;-61
2022/03/06 02:12:31;;;;;;;4.93;4.30;;;;;;;;;;4982564;28;20026;-61
2022/03/06 02:14:57;;;;;;;5.22;4.03;;;;;;;;;;4982709;28;20136;-61
2022/03/06 02:17:22;;;;;;;5.15;4.32;;;;;;;;;;4982408;28;20042;-61
2022/03/06 02:19:52;;;;;;;4.82;3.75;;;;;;;;;;4995630;28;20127;-61
2022/03/06 02:22:17;;;;;;;6.05;4.13;;;;;;;;;;5002035;28;20022;-61
2022/03/06 02:24:42;;;;;;;5.55;4.15;;;;;;;;;;4996760;28;20104;-61
2022/03/06 02:27:08;;;;;;;5.23;3.90;;;;;;;;;;4982468;28;20022;-61
2022/03/06 02:29:33;;;;;;;4.57;3.70;;;;;;;;;;4982615;28;20038;-62
2022/03/06 02:31:59;;;;;;;5.13;3.87;;;;;;;;;;4982340;28;20881;-61
2022/03/06 02:34:24;;;;;;;5.22;3.70;;;;;;;;;;4980969;28;20031;-61
2022/03/06 02:36:49;;;;;;;4.77;3.80;;;;;;;;;;4982251;28;20034;-61
2022/03/06 02:39:15;;;;;;;6.00;4.03;;;;;;;;;;4982404;28;20274;-61
2022/03/06 02:41:40;;;;;;;4.80;3.83;;;;;;;;;;4982478;28;20312;-61
2022/03/06 02:44:05;;;;;;;4.87;4.30;;;;;;;;;;4982762;28;20284;-61
2022/03/06 02:46:30;;;;;;;5.28;3.80;;;;;;;;;;4981866;28;20270;-61
2022/03/06 02:48:56;;;;;;;5.43;3.73;;;;;;;;;;4982555;28;20496;-61
2022/03/06 02:51:21;;;;;;;5.03;3.77;;;;;;;;;;4982221;28;20277;-61
2022/03/06 02:53:46;;;;;;;5.07;3.97;;;;;;;;;;4982159;28;20042;-61
2022/03/06 02:56:11;;;;;;;5.03;3.90;;;;;;;;;;4982030;28;20294;-62
2022/03/06 02:58:36;;;;;;;4.80;3.60;;;;;;;;;;4983304;28;20538;-61
2022/03/06 03:01:02;;;;;;;4.73;3.60;;;;;;;;;;4983219;28;20364;-61
2022/03/06 03:03:27;;;;;;;5.22;3.83;;;;;;;;;;4983408;28;20144;-61
2022/03/06 03:05:52;;;;;;;4.90;4.00;;;;;;;;;;4982404;28;20030;-61
2022/03/06 03:08:17;;;;;;;4.88;3.53;;;;;;;;;;4982991;28;20527;-60
2022/03/06 03:10:43;;;;;;;4.60;3.50;;;;;;;;;;4982084;28;20018;-61
2022/03/06 03:13:08;;;;;;;4.77;3.60;;;;;;;;;;4980742;28;20353;-61
2022/03/06 03:15:34;;;;;;;4.50;3.70;;;;;;;;;;4981969;28;20286;-61
2022/03/06 03:17:59;;;;;;;3.72;3.17;;;;;;;;;;4981910;28;20027;-61
2022/03/06 03:20:24;;;;;;;4.07;3.40;;;;;;;;;;4982821;28;20109;-61
2022/03/06 03:22:49;;;;;;;4.13;3.45;;;;;;;;;;4981049;28;20277;-61
2022/03/06 03:25:15;;;;;;;4.15;3.67;;;;;;;;;;4982134;28;20117;-62
2022/03/06 03:27:40;;;;;;;4.77;3.60;;;;;;;;;;4982121;28;20029;-61
2022/03/06 03:30:06;;;;;;;4.72;3.30;;;;;;;;;;4997769;28;20265;-62
2022/03/06 03:32:31;;;;;;;4.25;3.17;;;;;;;;;;5001617;28;20029;-61
2022/03/06 03:34:56;;;;;;;4.10;3.13;;;;;;;;;;5002116;28;20098;-63
2022/03/06 03:37:21;;;;;;;4.32;3.53;;;;;;;;;;5001705;28;20057;-61
2022/03/06 03:39:47;;;;;;;4.47;3.22;;;;;;;;;;4988355;28;20088;-60
2022/03/06 03:42:12;;;;;;;5.53;3.25;;;;;;;;;;4981693;28;20054;-61
2022/03/06 03:44:37;;;;;;;4.50;3.60;;;;;;;;;;4981414;28;20108;-61
2022/03/06 03:47:03;;;;;;;4.13;3.30;;;;;;;;;;4981435;28;20030;-62
2022/03/06 03:49:28;;;;;;;3.70;3.20;;;;;;;;;;4981780;28;20389;-61
2022/03/06 03:51:53;;;;;;;4.30;3.33;;;;;;;;;;4981889;28;20033;-61
2022/03/06 03:54:18;;;;;;;4.47;3.63;;;;;;;;;;4980953;28;20284;-61
2022/03/06 03:56:44;;;;;;;4.03;3.30;;;;;;;;;;4981695;28;20944;-61
2022/03/06 03:59:09;;;;;;;4.72;3.50;;;;;;;;;;4981276;28;20536;-60
2022/03/06 04:01:34;;;;;;;4.22;3.35;;;;;;;;;;4981479;28;20889;-61
2022/03/06 04:03:59;;;;;;;3.30;2.83;;;;;;;;;;4981511;28;20361;-61
2022/03/06 04:06:25;;;;;;;4.23;3.07;;;;;;;;;;4982162;28;20721;-61
2022/03/06 04:08:50;;;;;;;3.43;3.13;;;;;;;;;;4981547;28;20262;-62
2022/03/06 04:11:15;;;;;;;4.03;3.20;;;;;;;;;;4981362;28;20030;-60
2022/03/06 04:13:40;;;;;;;3.90;3.25;;;;;;;;;;4981678;28;20335;-61
2022/03/06 04:16:07;;;;;;;4.03;3.63;;;;;;;;;;4981129;28;20046;-61
2022/03/06 04:18:32;;;;;;;3.55;2.90;;;;;;;;;;4981226;28;20078;-62
2022/03/06 04:20:57;;;;;;;3.33;2.90;;;;;;;;;;4981670;28;20460;-61
2022/03/06 04:23:23;;;;;;;4.27;3.30;;;;;;;;;;4981316;28;20401;-61
2022/03/06 04:25:48;;;;;;;4.17;3.07;;;;;;;;;;4980827;28;20265;-61
2022/03/06 04:28:13;;;;;;;3.28;2.83;;;;;;;;;;4981273;28;20269;-60
2022/03/06 04:30:38;;;;;;;4.00;3.10;;;;;;;;;;4981021;28;20030;-61
2022/03/06 04:33:04;;;;;;;4.22;2.63;;;;;;;;;;4979842;28;21020;-61
2022/03/06 04:35:29;;;;;;;2.90;2.60;;;;;;;;;;4981147;28;20026;-61
2022/03/06 04:37:54;;;;;;;3.10;2.63;;;;;;;;;;4981086;28;20676;-61
2022/03/06 04:40:19;;;;;;;3.73;2.77;;;;;;;;;;4980529;28;20406;-62
2022/03/06 04:42:44;;;;;;;3.10;2.80;;;;;;;;;;4981163;28;20369;-61
2022/03/06 04:45:10;;;;;;;3.00;2.60;;;;;;;;;;4980954;28;20308;-62
2022/03/06 04:47:35;;;;;;;2.78;2.33;;;;;;;;;;4982095;28;20029;-60
2022/03/06 04:50:00;;;;;;;3.92;3.05;;;;;;;;;;4984663;28;20193;-61
2022/03/06 04:52:26;;;;;;;3.67;2.47;;;;;;;;;;4984417;28;20026;-62
2022/03/06 04:54:51;;;;;;;3.43;2.80;;;;;;;;;;4984130;28;20026;-61
2022/03/06 04:57:16;;;;;;;3.17;2.70;;;;;;;;;;4983009;28;20305;-61
2022/03/06 04:59:41;;;;;;;3.17;2.70;;;;;;;;;;4984545;28;20265;-61
2022/03/06 05:02:06;;;;;;;3.13;2.60;;;;;;;;;;4984281;28;20416;-61
2022/03/06 05:04:32;;;;;;;3.13;2.60;;;;;;;;;;4984072;28;20030;-61
2022/03/06 05:06:57;;;;;;;3.77;2.90;;;;;;;;;;4983708;28;20989;-61
2022/03/06 05:09:22;;;;;;;3.15;2.75;;;;;;;;;;4973270;28;20269;-59
2022/03/06 05:11:47;;;;;;;3.47;2.47;;;;;;;;;;4982779;28;20030;-61
2022/03/06 05:14:13;;;;;;;3.27;2.43;;;;;;;;;;4984493;28;20014;-60
2022/03/06 05:16:38;;;;;;;3.20;2.27;;;;;;;;;;4971063;28;20050;-60
2022/03/06 05:19:03;;;;;;;3.20;2.43;;;;;;;;;;4971565;28;20277;-61
2022/03/06 05:21:28;;;;;;;2.97;2.33;;;;;;;;;;4969002;28;20030;-61
2022/03/06 05:23:53;;;;;;;2.63;1.90;;;;;;;;;;4973155;28;20574;-60
2022/03/06 05:26:19;;;;;;;2.80;2.10;;;;;;;;;;4983077;28;20038;-60
2022/03/06 05:28:44;;;;;;;3.30;2.50;;;;;;;;;;4982033;28;20018;-60
2022/03/06 05:31:09;;;;;;;2.50;2.30;;;;;;;;;;4983079;28;20030;-61
2022/03/06 05:33:34;;;;;;;3.47;2.63;;;;;;;;;;4983145;28;20494;-60
2022/03/06 05:36:00;;;;;;;3.38;2.38;;;;;;;;;;4982603;28;20065;-61
2022/03/06 05:38:25;;;;;;;2.83;2.30;;;;;;;;;;4980558;28;20088;-61
2022/03/06 05:40:50;;;;;;;2.30;2.00;;;;;;;;;;4982857;28;20391;-60
2022/03/06 05:43:15;;;;;;;2.50;2.07;;;;;;;;;;4982932;28;20417;-59
2022/03/06 05:45:41;;;;;;;2.57;2.23;;;;;;;;;;4982872;28;20339;-60
2022/03/06 05:48:06;;;;;;;2.67;1.97;;;;;;;;;;4983114;28;20034;-57
2022/03/06 05:50:31;;;;;;;2.53;2.00;;;;;;;;;;4983213;28;20161;-59
2022/03/06 05:52:56;;;;;;;2.50;2.00;;;;;;;;;;4983015;28;20288;-59
2022/03/06 05:55:22;;;;;;;2.88;2.00;;;;;;;;;;4981066;28;20022;-59
2022/03/06 05:57:47;;;;;;;2.47;1.98;;;;;;;;;;4982718;28;20046;-59
2022/03/06 06:00:12;;;;;;;2.80;2.00;;;;;;;;;;4981566;28;20027;-60
2022/03/06 06:02:38;;;;;;;2.33;2.03;;;;;;;;;;4982601;28;20285;-60
2022/03/06 06:05:04;;;;;;;2.53;2.15;;;;;;;;;;4975445;28;20027;-59
2022/03/06 06:07:29;;;;;;;2.28;1.80;;;;;;;;;;4971903;28;20033;-59
2022/03/06 06:09:54;;;;;;;2.60;2.10;;;;;;;;;;4973263;28;20512;-59
2022/03/06 06:12:19;;;;;;;2.47;1.92;;;;;;;;;;4970618;28;20019;-59
2022/03/06 06:14:45;;;;;;;2.33;2.10;;;;;;;;;;4968654;28;20032;-61
2022/03/06 06:17:10;;;;;;;2.47;1.70;;;;;;;;;;4976487;28;20823;-60
2022/03/06 06:19:35;;;;;;;2.10;1.90;;;;;;;;;;4976576;28;20026;-61
2022/03/06 06:22:00;;;;;;;2.00;1.70;;;;;;;;;;4978810;28;20018;-61
2022/03/06 06:24:25;;;;;;;2.75;1.90;;;;;;;;;;4979663;28;20397;-59
2022/03/06 06:26:53;;;;;;;2.37;1.73;;;;;;;;;;4975632;28;20026;-60
2022/03/06 06:29:19;;;;;;;2.28;1.70;;;;;;;;;;4976572;28;20027;-60
2022/03/06 06:31:44;;;;;;;2.13;1.57;;;;;;;;;;4973107;28;20033;-63
2022/03/06 06:34:09;;;;;;;1.90;1.70;;;;;;;;;;4963586;28;20312;-63
2022/03/06 06:36:34;;;;;;;1.60;1.40;;;;;;;;;;4965425;28;20031;-63
2022/03/06 06:38:59;;;;;;;2.37;1.80;;;;;;;;;;4963479;28;20073;-62
2022/03/06 06:41:25;;;;;;;2.10;1.70;;;;;;;;;;4963711;28;20038;-61
2022/03/06 06:43:50;;;;;;;1.70;1.53;;;;;;;;;;4969218;28;20362;-62
2022/03/06 06:46:15;;;;;;;1.90;1.50;;;;;;;;;;4963290;28;20114;-62
2022/03/06 06:48:40;;;;;;;1.90;1.50;;;;;;;;;;4965124;28;20489;-59
2022/03/06 06:51:06;;;;;;;2.33;1.70;;;;;;;;;;4966052;28;20481;-62
2022/03/06 06:53:31;;;;;;;2.33;1.67;;;;;;;;;;4969010;28;20440;-60
2022/03/06 06:55:56;;;;;;;2.30;1.70;;;;;;;;;;4977766;28;20289;-60
2022/03/06 06:58:21;;;;;;;1.83;1.58;;;;;;;;;;4982069;28;20281;-63
2022/03/06 07:00:47;;;;;;;3.43;1.90;;;;;;;;;;4982062;28;20022;-62
2022/03/06 07:03:12;;;;;;;2.28;1.80;;;;;;;;;;4981429;28;20288;-61
2022/03/06 07:05:37;;;;;;;2.03;1.80;;;;;;;;;;4982289;28;20126;-61
2022/03/06 07:08:02;;;;;;;3.95;1.70;;;;;;;;;;4981763;28;20109;-61
2022/03/06 07:10:28;;;;;;;3.53;1.50;;;;;;;;;;4981991;28;20033;-63
2022/03/06 07:12:55;;;;;;;2.30;2.03;;;;;;;;;;4981568;28;20046;-63
2022/03/06 07:15:20;;;;;;;1.98;1.48;;;;;;;;;;4981918;28;20273;-61
2022/03/06 07:17:45;;;;;;;2.45;1.45;;;;;;;;;;4984284;28;20498;-54
2022/03/06 07:20:11;;;;;;;1.83;1.37;;;;;;;;;;4983742;28;20043;-68
2022/03/06 07:22:36;;;;;;;1.70;1.45;;;;;;;;;;4983128;28;20917;-63
2022/03/06 07:25:01;;;;;;;1.87;1.50;;;;;;;;;;4981511;28;20267;-60
2022/03/06 07:27:26;;;;;;;2.55;1.63;;;;;;;;;;4981608;28;20846;-63
2022/03/06 07:29:52;;;;;;;2.17;1.83;;;;;;;;;;4982050;28;20057;-62
2022/03/06 07:32:17;;;;;;;1.83;1.40;;;;;;;;;;4982342;28;20687;-60
2022/03/06 07:34:42;;;;;;;1.97;1.50;;;;;;;;;;4980086;28;20480;-61
2022/03/06 07:37:07;;;;;;;2.07;1.50;;;;;;;;;;4980622;28;20311;-61
2022/03/06 07:39:33;;;;;;;1.92;1.50;;;;;;;;;;4980935;28;20023;-60
2022/03/06 07:41:58;;;;;;;2.07;1.50;;;;;;;;;;4978288;28;20460;-60
2022/03/06 07:44:23;;;;;;;1.83;1.63;;;;;;;;;;4981396;28;20507;-60
2022/03/06 07:46:48;;;;;;;2.37;1.73;;;;;;;;;;4980312;28;20492;-60
2022/03/06 07:49:13;;;;;;;2.20;1.20;;;;;;;;;;4981128;28;20031;-60
2022/03/06 07:51:39;;;;;;;1.57;1.10;;;;;;;;;;4980921;28;20715;-62
2022/03/06 07:54:04;;;;;;;2.13;1.43;;;;;;;;;;4978889;28;20471;-63
2022/03/06 07:56:29;;;;;;;2.00;1.45;;;;;;;;;;4979198;28;20297;-61
2022/03/06 07:58:54;;;;;;;1.60;1.43;;;;;;;;;;4980074;28;20031;-60
2022/03/06 08:01:20;;;;;;;2.00;1.20;;;;;;;;;;4980379;28;20031;-60
2022/03/06 08:03:45;;;;;;;1.70;1.40;;;;;;;;;;5000072;28;20018;-60
2022/03/06 08:06:10;;;;;;;1.55;1.20;;;;;;;;;;4976687;28;20036;-61
2022/03/06 08:08:36;;;;;;;1.80;1.30;;;;;;;;;;4983388;28;20032;-61
2022/03/06 08:11:01;;;;;;;2.57;1.33;;;;;;;;;;4982741;28;20268;-59
2022/03/06 08:13:26;;;;;;;1.30;1.20;;;;;;;;;;4980158;28;20284;-62
2022/03/06 08:15:51;;;;;;;1.60;1.40;;;;;;;;;;4981184;28;20051;-62
2022/03/06 08:18:16;;;;;;;2.07;1.40;;;;;;;;;;4981380;28;20277;-60
2022/03/06 08:20:42;;;;;;;1.67;1.30;;;;;;;;;;4980991;28;20759;-60
2022/03/06 08:23:07;;;;;;;1.73;1.30;;;;;;;;;;4983609;28;20503;-61
2022/03/06 08:25:32;;;;;;;2.27;1.43;;;;;;;;;;4984356;28;20269;-59
2022/03/06 08:27:57;;;;;;;1.30;1.00;;;;;;;;;;4984929;28;20336;-61
2022/03/06 08:30:23;;;;;;;1.55;1.20;;;;;;;;;;4987188;28;20345;-58
2022/03/06 08:32:48;;;;;;;1.70;1.23;;;;;;;;;;4984734;28;20026;-61
2022/03/06 08:35:13;;;;;;;1.77;1.27;;;;;;;;;;4984822;28;20030;-60
2022/03/06 08:37:38;;;;;;;2.72;1.23;;;;;;;;;;4984514;28;20030;-62
2022/03/06 08:40:04;;;;;;;2.40;1.13;;;;;;;;;;4973716;28;20100;-60
2022/03/06 08:42:29;;;;;;;2.00;1.50;;;;;;;;;;4979486;28;20038;-61
2022/03/06 08:44:55;;;;;;;1.88;1.13;;;;;;;;;;4985018;28;20413;-61
2022/03/06 08:47:20;;;;;;;2.80;1.10;;;;;;;;;;4983993;28;20026;-59
2022/03/06 08:49:45;;;;;;;2.90;1.27;;;;;;;;;;4984547;28;20776;-62
2022/03/06 08:52:10;;;;;;;1.57;1.17;;;;;;;;;;4984278;28;20293;-60
2022/03/06 08:54:36;;;;;;;4.20;1.38;;;;;;;;;;4983707;28;20135;-60
2022/03/06 08:57:01;;;;;;;2.38;1.30;;;;;;;;;;4983971;28;20102;-59
2022/03/06 08:59:26;;;;;;;2.03;1.40;;;;;;;;;;4984637;28;20022;-58
2022/03/06 09:01:55;;;;;;;2.27;1.10;;;;;;;;;;4984655;28;20811;-58
2022/03/06 09:04:21;;;;;;;1.73;1.27;;;;;;;;;;4984103;28;20457;-60
2022/03/06 09:06:46;;;;;;;1.90;1.40;;;;;;;;;;4983265;28;20125;-58
2022/03/06 09:09:11;;;;;;;2.27;1.23;;;;;;;;;;4983485;28;20049;-60
2022/03/06 09:11:37;;;;;;;2.37;1.30;;;;;;;;;;4983386;28;20088;-58
2022/03/06 09:14:03;;;;;;;2.53;1.33;;;;;;;;;;4984020;28;20025;-60
2022/03/06 09:16:28;;;;;;;2.65;1.10;;;;;;;;;;4983069;28;20038;-60
2022/03/06 09:18:53;;;;;;;3.30;1.50;;;;;;;;;;4984299;28;20037;-60
2022/03/06 09:21:18;;;;;;;3.35;1.25;;;;;;;;;;4984295;28;20499;-60
2022/03/06 09:23:44;;;;;;;2.50;1.20;;;;;;;;;;4983274;28;20413;-60
2022/03/06 09:26:09;;;;;;;2.70;1.10;;;;;;;;;;4983180;28;20511;-61
2022/03/06 09:28:34;;;;;;;2.22;1.30;;;;;;;;;;4983005;28;20054;-60
2022/03/06 09:30:59;;;;;;;2.65;1.25;;;;;;;;;;4982404;28;20052;-60
2022/03/06 09:33:24;;;;;;;3.03;1.20;;;;;;;;;;4983317;28;20456;-60
2022/03/06 09:35:50;;;;;;;3.97;1.57;;;;;;;;;;4983027;28;20336;-61
2022/03/06 09:38:15;;;;;;;3.53;1.23;;;;;;;;;;4977965;28;20023;-61
2022/03/06 09:40:42;;;;;;;4.47;1.57;;;;;;;;;;4967859;28;20377;-61
2022/03/06 09:43:07;;;;;;;1.92;1.25;;;;;;;;;;4984080;28;20081;-60
2022/03/06 09:45:34;;;;;;;3.30;1.60;;;;;;;;;;4973832;28;20023;-60
2022/03/06 09:47:59;;;;;;;3.17;1.35;;;;;;;;;;4964207;28;20062;-60
2022/03/06 09:50:24;;;;;;;3.28;1.45;;;;;;;;;;4966739;28;20031;-61
2022/03/06 09:52:50;;;;;;;3.33;1.60;;;;;;;;;;4980623;28;20038;-63
2022/03/06 09:55:15;;;;;;;4.80;1.30;;;;;;;;;;4982712;28;20053;-60
2022/03/06 09:57:40;;;;;;;2.63;1.40;;;;;;;;;;4981910;28;20034;-60
2022/03/06 10:00:06;;;;;;;2.40;1.42;;;;;;;;;;4982850;28;20081;-64
2022/03/06 10:02:31;;;;;;;3.38;1.30;;;;;;;;;;4984324;28;20043;-61
2022/03/06 10:04:56;;;;;;;3.47;1.27;;;;;;;;;;4985059;28;20662;-61
2022/03/06 10:07:22;;;;;;;4.30;1.40;;;;;;;;;;4984720;28;20069;-61
2022/03/06 10:09:48;;;;;;;6.93;2.20;;;;;;;;;;4982039;28;20470;-65
2022/03/06 10:12:22;;;;;;;3.63;2.15;;;;;;;;;;4979823;28;20285;-61
2022/03/06 10:14:47;;;;;;;7.03;2.83;;;;;;;;;;4982054;28;20604;-59
2022/03/06 10:17:13;;;;;;;5.50;3.33;;;;;;;;;;4981829;28;20071;-59
2022/03/06 10:19:57;;;;;;;9.18;3.55;;;;;;;;;;4980256;28;20125;-58
2022/03/06 10:22:29;;;;;;;6.40;3.92;;;;;;;;;;4983214;28;20025;-60
2022/03/06 10:24:55;;;;;;;7.20;3.50;;;;;;;;;;4982753;28;20030;-60
2022/03/06 10:27:39;;;;;;;10.68;4.53;;;;;;;;;;4990669;28;20409;-59
2022/03/06 10:30:21;;;;;;;7.93;3.75;;;;;;;;;;5000741;28;20045;-58
2022/03/06 10:32:46;;;;;;;7.90;3.95;;;;;;;;;;5001106;28;20567;-59
2022/03/06 10:35:11;;;;;;;8.75;3.97;;;;;;;;;;5001795;28;20100;-58
2022/03/06 10:37:36;;;;;;;8.07;4.43;;;;;;;;;;5002353;28;20061;-59
2022/03/06 10:40:02;;;;;;;6.68;4.57;;;;;;;;;;4988625;28;20049;-58
2022/03/06 10:42:27;;;;;;;7.50;4.18;;;;;;;;;;4981801;28;20029;-57
2022/03/06 10:44:52;;;;;;;7.67;3.93;;;;;;;;;;4979196;28;20109;-59
2022/03/06 10:47:18;;;;;;;8.43;4.47;;;;;;;;;;4981648;28;20069;-59
2022/03/06 10:49:57;;;;;;;9.77;4.67;;;;;;;;;;4979355;28;20340;-57
2022/03/06 10:52:23;;;;;;;7.43;4.60;;;;;;;;;;4981643;28;20270;-58
2022/03/06 10:54:55;;;;;;;8.38;4.78;;;;;;;;;;4987208;28;20057;-58
2022/03/06 10:57:20;;;;;;;6.13;3.95;;;;;;;;;;4983609;28;20049;-60
2022/03/06 10:59:46;;;;;;;6.60;3.50;;;;;;;;;;4982313;28;20026;-59
2022/03/06 11:02:11;;;;;;;6.27;3.90;;;;;;;;;;4980945;28;20491;-59
2022/03/06 11:04:37;;;;;;;4.78;3.13;;;;;;;;;;4982145;28;20273;-59
2022/03/06 11:07:02;;;;;;;6.27;3.17;;;;;;;;;;4981037;28;20424;-59
2022/03/06 11:09:27;;;;;;;5.78;3.40;;;;;;;;;;4982478;28;20348;-58
2022/03/06 11:11:52;;;;;;;5.10;3.13;;;;;;;;;;4980752;28;20406;-59
2022/03/06 11:14:18;;;;;;;7.07;3.60;;;;;;;;;;4982545;28;20579;-58
2022/03/06 11:16:44;;;;;;;5.53;3.38;;;;;;;;;;4981499;28;20270;-58
2022/03/06 11:19:09;;;;;;;5.30;3.40;;;;;;;;;;4982355;28;20113;-57
2022/03/06 11:21:35;;;;;;;4.13;2.80;;;;;;;;;;4954638;28;20125;-58
2022/03/06 11:24:01;;;;;;;5.43;3.10;;;;;;;;;;4976465;28;20040;-58
2022/03/06 11:26:29;;;;;;;6.32;3.58;;;;;;;;;;4981141;28;20030;-58
2022/03/06 11:28:54;;;;;;;5.55;3.53;;;;;;;;;;5005083;28;20744;-59
2022/03/06 11:31:19;;;;;;;5.23;3.53;;;;;;;;;;5003948;28;20026;-57
2022/03/06 11:33:52;;;;;;;7.93;4.30;;;;;;;;;;5004083;28;20030;-59
2022/03/06 11:36:21;;;;;;;6.45;4.50;;;;;;;;;;5003570;28;20296;-59
2022/03/06 11:38:48;;;;;;;5.27;4.27;;;;;;;;;;5003120;28;20045;-59
2022/03/06 11:41:13;;;;;;;6.00;4.03;;;;;;;;;;5003422;28;20341;-57
2022/03/06 11:43:43;;;;;;;5.27;3.97;;;;;;;;;;5002480;28;20571;-58
2022/03/06 11:46:28;;;;;;;6.72;4.40;;;;;;;;;;4989859;28;20038;-59
2022/03/06 11:48:56;;;;;;;6.18;4.13;;;;;;;;;;4968340;28;20109;-58
2022/03/06 11:51:21;;;;;;;6.43;3.42;;;;;;;;;;4984051;28;20030;-58
2022/03/06 11:54:06;;;;;;;6.13;3.93;;;;;;;;;;4975970;28;20025;-58
2022/03/06 11:56:34;;;;;;;5.43;4.13;;;;;;;;;;4982212;28;20304;-58
2022/03/06 11:59:00;;;;;;;4.03;3.40;;;;;;;;;;4981069;28;20036;-58
2022/03/06 12:01:28;;;;;;;6.90;3.45;;;;;;;;;;4969464;28;20507;-58
2022/03/06 12:03:54;;;;;;;4.47;3.17;;;;;;;;;;4967852;28;20085;-58
2022/03/06 12:06:19;;;;;;;4.65;2.97;;;;;;;;;;4968639;28;20023;-59
2022/03/06 12:08:44;;;;;;;3.73;2.83;;;;;;;;;;4970105;28;20061;-58
2022/03/06 12:11:10;;;;;;;4.10;2.77;;;;;;;;;;4964545;28;20019;-58
2022/03/06 12:13:35;;;;;;;3.93;2.83;;;;;;;;;;4975674;28;20080;-58
2022/03/06 12:16:04;;;;;;;4.93;3.20;;;;;;;;;;4985717;28;20112;-58
2022/03/06 12:18:29;;;;;;;5.33;3.90;;;;;;;;;;4987420;28;20049;-57
2022/03/06 12:20:55;;;;;;;5.18;3.88;;;;;;;;;;4987684;28;20026;-58
2022/03/06 12:23:21;;;;;;;4.77;3.43;;;;;;;;;;4985823;28;20044;-58
2022/03/06 12:25:54;;;;;;;4.28;3.25;;;;;;;;;;4976205;28;20265;-58
2022/03/06 12:28:19;;;;;;;4.45;3.28;;;;;;;;;;4983115;28;20389;-58
2022/03/06 12:30:45;;;;;;;5.18;3.15;;;;;;;;;;4986923;28;20065;-58
2022/03/06 12:33:26;;;;;;;5.75;3.15;;;;;;;;;;4987456;28;20022;-58
2022/03/06 12:35:56;;;;;;;5.82;4.32;;;;;;;;;;4985586;28;20117;-58
2022/03/06 12:38:22;;;;;;;;;;;;;;;;;;4986430;28;20053;-57
2022/03/06 12:40:47;;;;;;;6.78;4.70;;;;;;;;;;4987319;28;19984;-58
2022/03/06 12:43:12;;;;;;;5.33;4.23;;;;;;;;;;4986894;28;20030;-57
2022/03/06 12:45:37;;;;;;;5.13;3.87;;;;;;;;;;4985463;28;20332;-57
2022/03/06 12:48:03;;;;;;;4.37;3.33;;;;;;;;;;4987329;28;20277;-58
2022/03/06 12:50:28;;;;;;;5.72;4.00;;;;;;;;;;4987340;28;20038;-58
2022/03/06 12:52:54;;;;;;;5.03;3.67;;;;;;;;;;4986966;28;20073;-58
2022/03/06 12:55:20;;;;;;;5.72;4.00;;;;;;;;;;4986753;28;20038;-58
2022/03/06 12:57:46;;;;;;;5.97;4.07;;;;;;;;;;4986616;28;20042;-58
2022/03/06 13:00:13;;;;;;;6.65;4.13;;;;;;;;;;4986733;28;20033;-58
2022/03/06 13:02:39;;;;;;;4.70;4.00;;;;;;;;;;4986902;28;20349;-58
2022/03/06 13:05:04;;;;;;;5.30;3.63;;;;;;;;;;4986522;28;20025;-58
2022/03/06 13:07:30;;;;;;;5.07;3.50;;;;;;;;;;4986709;28;20799;-58
2022/03/06 13:09:59;;;;;;;8.27;4.30;;;;;;;;;;4986667;28;20552;-58
2022/03/06 13:12:28;;;;;;;5.43;3.80;;;;;;;;;;4986431;28;20057;-58
2022/03/06 13:14:53;;;;;;;5.78;3.80;;;;;;;;;;4986209;28;20024;-57
2022/03/06 13:17:19;;;;;;;5.70;3.60;;;;;;;;;;4986306;28;20038;-58
2022/03/06 13:19:48;;;;;;;7.05;4.40;;;;;;;;;;4986561;28;20101;-58
2022/03/06 13:22:14;;;;;;;5.47;3.25;;;;;;;;;;4986536;28;20694;-58
2022/03/06 13:24:43;;;;;;;6.22;3.65;;;;;;;;;;4984495;28;20057;-58
2022/03/06 13:27:10;;;;;;;4.53;3.43;;;;;;;;;;4986063;28;20022;-58
2022/03/06 13:29:35;;;;;;;5.60;3.38;;;;;;;;;;4986549;28;20261;-58
2022/03/06 13:32:00;;;;;;;5.93;3.80;;;;;;;;;;4986387;28;20109;-58
2022/03/06 13:34:26;;;;;;;6.57;3.87;;;;;;;;;;4986428;28;20370;-58
2022/03/06 13:36:51;;;;;;;5.70;3.88;;;;;;;;;;4986158;28;20456;-58
2022/03/06 13:39:17;;;;;;;5.40;3.55;;;;;;;;;;4986130;28;20026;-58
2022/03/06 13:41:52;;;;;;;6.85;4.57;;;;;;;;;;4985491;28;20034;-58
2022/03/06 13:44:18;;;;;;;5.28;3.28;;;;;;;;;;4986133;28;20798;-57
2022/03/06 13:46:43;;;;;;;10.63;4.60;;;;;;;;;;4985437;28;20120;-57
2022/03/06 13:49:09;;;;;;;12.43;4.77;;;;;;;;;;4977027;28;20487;-58
2022/03/06 13:51:34;;;;;;;9.52;4.00;;;;;;;;;;4985841;28;20029;-59
2022/03/06 13:54:00;;;;;;;8.37;4.20;;;;;;;;;;4986107;28;20034;-60
2022/03/06 13:56:28;;;;;;;7.25;3.60;;;;;;;;;;4985354;28;20898;-61
2022/03/06 13:58:54;;;;;;;7.57;4.30;;;;;;;;;;4985798;28;20030;-61
2022/03/06 14:01:19;;;;;;;7.82;3.28;;;;;;;;;;4985652;28;20026;-59
2022/03/06 14:03:46;;;;;;;7.65;3.45;;;;;;;;;;4985492;28;20049;-60
2022/03/06 14:06:12;;;;;;;6.68;3.13;;;;;;;;;;4985416;28;20034;-58
2022/03/06 14:08:38;;;;;;;6.03;3.20;;;;;;;;;;4983792;28;20082;-60
2022/03/06 14:11:03;;;;;;;6.93;3.33;;;;;;;;;;4985216;28;20054;-61
2022/03/06 14:13:29;;;;;;;6.95;3.08;;;;;;;;;;4985085;28;20050;-58
2022/03/06 14:16:04;;;;;;;6.90;3.33;;;;;;;;;;4984808;28;20609;-61
2022/03/06 14:18:36;;;;;;;10.43;2.97;;;;;;;;;;4985632;28;20034;-60
2022/03/06 14:21:28;;;;;;;4.05;3.00;;;;;;;;;;4978155;28;20026;-59
2022/03/06 14:23:54;;;;;;;8.82;2.67;;;;;;;;;;4969318;28;20532;-60
2022/03/06 14:26:25;;;;;;;6.20;3.20;;;;;;;;;;4983220;28;20026;-58
2022/03/06 14:28:51;;;;;;;6.47;3.47;;;;;;;;;;4967512;28;20444;-61
2022/03/06 14:31:16;;;;;;;5.10;3.10;;;;;;;;;;4965746;28;20037;-62
2022/03/06 14:33:41;;;;;;;4.43;3.10;;;;;;;;;;4969012;28;20019;-62
2022/03/06 14:36:06;;;;;;;6.53;3.40;;;;;;;;;;4984334;28;20041;-59